createdAt,value
2022-08-02T00:01:07.251Z,5.28
2022-08-02T00:03:36.601Z,8.13
2022-08-02T00:06:05.749Z,6.70
2022-08-02T00:08:35.059Z,6.57
2022-08-02T00:11:04.102Z,6.45
2022-08-02T00:13:33.317Z,8.02
2022-08-02T00:16:02.527Z,7.03
2022-08-02T00:18:31.758Z,5.03
2022-08-02T00:21:01.200Z,5.18
2022-08-02T00:23:30.575Z,4.88
2022-08-02T00:26:00.087Z,4.18
2022-08-02T00:28:29.694Z,5.65
2022-08-02T00:30:59.827Z,4.85
2022-08-02T00:34:05.364Z,5.30
2022-08-02T00:36:19.108Z,3.53
2022-08-02T00:38:49.551Z,6.47
2022-08-02T00:41:22.560Z,9.13
2022-08-02T00:43:53.457Z,4.90
2022-08-02T00:46:23.179Z,4.85
2022-08-02T00:48:52.663Z,14.43
2022-08-02T00:51:22.550Z,5.25
2022-08-02T00:53:52.031Z,4.90
2022-08-02T00:56:21.358Z,10.75
2022-08-02T00:58:50.686Z,11.25
2022-08-02T01:01:20.107Z,25.20
2022-08-02T01:03:50.243Z,23.33
2022-08-02T01:06:19.586Z,25.08
2022-08-02T01:08:49.076Z,24.55
2022-08-02T01:11:18.361Z,26.23
2022-08-02T01:13:47.691Z,26.35
2022-08-02T01:16:23.864Z,24.50
2022-08-02T01:18:58.803Z,25.98
2022-08-02T01:22:01.764Z,3.40
2022-08-02T01:25:14.353Z,5.57
2022-08-02T01:28:11.171Z,6.32
2022-08-02T01:30:44.514Z,6.78
2022-08-02T01:33:18.709Z,7.25
2022-08-02T01:35:55.195Z,4.68
2022-08-02T01:38:40.765Z,4.15
2022-08-02T01:41:19.673Z,4.80
2022-08-02T01:43:53.013Z,3.00
2022-08-02T01:46:23.266Z,3.95
2022-08-02T01:48:55.203Z,3.65
2022-08-02T01:51:46.490Z,4.70
2022-08-02T01:54:19.341Z,5.47
2022-08-02T01:56:51.575Z,3.45
2022-08-02T01:59:24.311Z,5.95
2022-08-02T02:01:57.540Z,3.65
2022-08-02T02:04:29.537Z,3.38
2022-08-02T02:06:59.488Z,2.92
2022-08-02T02:09:32.259Z,2.75
2022-08-02T02:12:05.288Z,6.05
2022-08-02T02:14:51.489Z,4.25
2022-08-02T02:17:50.660Z,6.20
2022-08-02T02:20:19.856Z,2.38
2022-08-02T02:22:50.304Z,3.50
2022-08-02T02:25:28.204Z,5.82
2022-08-02T02:28:31.316Z,3.85
2022-08-02T02:31:09.965Z,2.58
2022-08-02T02:34:01.354Z,3.15
2022-08-02T02:36:31.341Z,4.63
2022-08-02T02:39:04.371Z,5.20
2022-08-02T02:41:44.087Z,3.80
2022-08-02T02:44:18.226Z,3.63
2022-08-02T02:46:48.308Z,2.58
2022-08-02T02:49:19.173Z,1.90
2022-08-02T02:51:49.358Z,2.65
2022-08-02T02:54:33.025Z,4.55
2022-08-02T02:57:05.994Z,2.75
2022-08-02T02:59:49.266Z,6.60
2022-08-02T03:04:56.944Z,3.55
2022-08-02T03:07:28.139Z,2.33
2022-08-02T03:09:57.286Z,2.45
2022-08-02T03:12:31.787Z,4.03
2022-08-02T03:15:03.154Z,5.38
2022-08-02T03:17:43.254Z,2.60
2022-08-02T03:20:18.787Z,1.95
2022-08-02T03:22:48.779Z,1.90
2022-08-02T03:25:19.536Z,2.90
2022-08-02T03:27:49.233Z,4.85
2022-08-02T03:30:18.386Z,1.48
2022-08-02T03:32:50.140Z,3.45
2022-08-02T03:35:24.136Z,3.13
2022-08-02T03:37:55.805Z,3.20
2022-08-02T03:40:26.682Z,3.55
2022-08-02T03:42:56.526Z,5.10
2022-08-02T03:45:27.397Z,3.05
2022-08-02T03:47:58.835Z,4.00
2022-08-02T03:50:29.389Z,3.10
2022-08-02T03:52:59.642Z,3.10
2022-08-02T03:55:29.176Z,2.33
2022-08-02T03:57:58.305Z,4.57
2022-08-02T04:00:27.576Z,2.78
2022-08-02T04:02:56.827Z,3.75
2022-08-02T04:05:26.800Z,3.33
2022-08-02T04:08:31.812Z,5.45
2022-08-02T04:11:03.467Z,3.38
2022-08-02T04:13:37.183Z,5.88
2022-08-02T04:16:18.951Z,8.93
2022-08-02T04:18:55.593Z,5.22
2022-08-02T04:21:48.461Z,3.53
2022-08-02T04:24:20.394Z,4.18
2022-08-02T04:26:57.803Z,2.97
2022-08-02T04:29:32.028Z,2.72
2022-08-02T04:32:02.563Z,2.72
2022-08-02T04:34:32.684Z,2.13
2022-08-02T04:37:02.555Z,4.55
2022-08-02T04:39:31.898Z,3.00
2022-08-02T04:42:01.363Z,3.95
2022-08-02T04:44:33.823Z,4.45
2022-08-02T04:47:06.957Z,4.32
2022-08-02T04:49:36.759Z,2.67
2022-08-02T04:52:06.388Z,3.17
2022-08-02T04:54:35.968Z,3.35
2022-08-02T04:57:28.951Z,2.75
2022-08-02T04:59:58.636Z,4.70
2022-08-02T05:02:28.013Z,5.32
2022-08-02T05:04:57.295Z,3.13
2022-08-02T05:07:26.640Z,4.47
2022-08-02T05:09:58.342Z,5.35
2022-08-02T05:12:27.945Z,5.78
2022-08-02T05:14:57.276Z,6.43
2022-08-02T05:17:26.609Z,6.50
2022-08-02T05:19:55.932Z,4.72
2022-08-02T05:22:25.240Z,6.90
2022-08-02T05:24:54.671Z,4.85
2022-08-02T05:27:23.843Z,3.10
2022-08-02T05:29:54.016Z,4.07
2022-08-02T05:32:25.107Z,3.63
2022-08-02T05:34:55.540Z,5.93
2022-08-02T05:37:24.747Z,4.70
2022-08-02T05:39:55.623Z,3.78
2022-08-02T05:42:26.045Z,3.30
2022-08-02T05:44:55.106Z,4.10
2022-08-02T05:47:25.375Z,3.33
2022-08-02T05:49:54.675Z,4.15
2022-08-02T05:52:27.239Z,4.63
2022-08-02T05:54:56.453Z,5.60
2022-08-02T05:57:51.064Z,4.22
2022-08-02T06:00:21.404Z,3.20
2022-08-02T06:03:19.470Z,2.60
2022-08-02T06:06:06.798Z,3.60
2022-08-02T06:08:48.041Z,4.22
2022-08-02T06:11:24.150Z,4.03
2022-08-02T06:13:53.700Z,5.72
2022-08-02T06:16:32.387Z,7.35
2022-08-02T06:19:02.830Z,4.30
2022-08-02T06:22:32.851Z,4.85
2022-08-02T06:24:22.075Z,3.42
2022-08-02T06:26:56.338Z,3.08
2022-08-02T06:29:26.290Z,2.22
2022-08-02T06:31:56.145Z,3.17
2022-08-02T06:34:25.416Z,3.25
2022-08-02T06:37:07.226Z,2.88
2022-08-02T06:39:47.678Z,3.95
2022-08-02T06:42:27.265Z,2.25
2022-08-02T06:44:58.068Z,4.05
2022-08-02T06:47:27.945Z,3.17
2022-08-02T06:49:59.413Z,2.28
2022-08-02T06:52:31.953Z,4.18
2022-08-02T06:55:03.189Z,2.60
2022-08-02T06:57:32.872Z,4.65
2022-08-02T07:00:03.650Z,2.60
2022-08-02T07:02:33.935Z,2.85
2022-08-02T07:05:03.269Z,3.03
2022-08-02T07:07:32.967Z,2.75
2022-08-02T07:10:02.743Z,4.68
2022-08-02T07:12:33.544Z,2.78
2022-08-02T07:15:06.265Z,4.13
2022-08-02T07:17:36.097Z,6.53
2022-08-02T07:20:06.160Z,2.63
2022-08-02T07:22:35.534Z,4.10
2022-08-02T07:25:05.765Z,1.13
2022-08-02T07:27:35.417Z,1.10
2022-08-02T07:30:05.507Z,4.80
2022-08-02T07:32:35.474Z,6.95
2022-08-02T07:35:06.935Z,8.43
2022-08-02T07:37:54.813Z,5.70
2022-08-02T07:40:26.023Z,1.52
2022-08-02T07:43:02.779Z,1.95
2022-08-02T07:45:35.949Z,1.92
2022-08-02T07:48:05.631Z,1.42
2022-08-02T07:50:34.995Z,1.60
2022-08-02T07:53:04.450Z,1.95
2022-08-02T07:55:39.681Z,1.08
2022-08-02T07:58:13.834Z,1.20
2022-08-02T08:00:46.849Z,2.72
2022-08-02T08:03:16.312Z,3.00
2022-08-02T08:05:45.733Z,4.00
2022-08-02T08:08:17.522Z,3.10
2022-08-02T08:10:47.696Z,1.67
2022-08-02T08:13:17.885Z,1.73
2022-08-02T08:15:52.379Z,1.88
2022-08-02T08:18:23.681Z,4.55
2022-08-02T08:20:53.467Z,2.17
2022-08-02T08:23:23.843Z,3.78
2022-08-02T08:25:53.346Z,3.33
2022-08-02T08:28:22.776Z,2.38
2022-08-02T08:30:52.203Z,2.30
2022-08-02T08:33:21.623Z,2.38
2022-08-02T08:35:50.965Z,2.55
2022-08-02T08:38:20.488Z,5.13
2022-08-02T08:40:53.669Z,2.15
2022-08-02T08:43:25.800Z,2.53
2022-08-02T08:45:55.832Z,1.83
2022-08-02T08:48:30.923Z,1.73
2022-08-02T08:51:09.522Z,1.60
2022-08-02T08:53:43.885Z,3.60
2022-08-02T08:56:16.508Z,2.35
2022-08-02T08:58:50.859Z,2.25
2022-08-02T09:01:20.226Z,2.88
2022-08-02T09:03:49.615Z,2.38
2022-08-02T09:06:18.959Z,5.22
2022-08-02T09:08:48.541Z,3.05
2022-08-02T09:11:20.600Z,3.42
2022-08-02T09:14:08.073Z,7.20
2022-08-02T09:16:45.928Z,7.07
2022-08-02T09:19:25.460Z,6.35
2022-08-02T09:22:05.940Z,7.82
2022-08-02T09:24:47.669Z,15.63
2022-08-02T09:27:19.728Z,11.35
2022-08-02T09:30:12.845Z,6.65
2022-08-02T09:32:51.035Z,4.97
2022-08-02T09:36:06.966Z,5.57
2022-08-02T09:38:27.097Z,5.60
2022-08-02T09:40:56.812Z,4.68
2022-08-02T09:44:03.353Z,6.40
2022-08-02T09:46:44.733Z,5.50
2022-08-02T09:49:17.663Z,6.32
2022-08-02T09:51:58.067Z,7.88
2022-08-02T09:54:29.829Z,3.95
2022-08-02T09:57:01.914Z,4.55
2022-08-02T09:59:32.387Z,4.90
2022-08-02T10:02:04.537Z,4.88
2022-08-02T10:04:45.250Z,4.45
2022-08-02T10:07:23.753Z,6.45
2022-08-02T10:09:54.387Z,7.13
2022-08-02T10:12:24.313Z,6.97
2022-08-02T10:14:54.111Z,9.45
2022-08-02T10:17:23.768Z,5.32
2022-08-02T10:20:02.310Z,8.15
2022-08-02T10:22:38.244Z,6.53
2022-08-02T10:25:09.592Z,4.65
2022-08-02T10:28:02.859Z,3.88
2022-08-02T10:30:29.839Z,4.30
2022-08-02T10:33:01.190Z,5.35
2022-08-02T10:35:34.365Z,4.60
2022-08-02T10:38:09.083Z,4.68
2022-08-02T10:40:53.468Z,5.47
2022-08-02T10:43:34.734Z,4.03
2022-08-02T10:46:26.251Z,6.32
2022-08-02T10:52:06.972Z,6.20
2022-08-02T10:54:42.394Z,4.97
2022-08-02T10:57:26.574Z,4.95
2022-08-02T11:02:36.749Z,5.55
2022-08-02T11:05:20.998Z,4.80
2022-08-02T11:07:51.585Z,4.60
2022-08-02T11:10:26.920Z,7.25
2022-08-02T11:13:10.049Z,9.70
2022-08-02T11:15:56.431Z,7.25
2022-08-02T11:18:46.036Z,6.18
2022-08-02T11:21:35.184Z,6.88
2022-08-02T11:24:27.389Z,6.53
2022-08-02T11:26:58.116Z,6.78
2022-08-02T11:29:38.691Z,9.35
2022-08-02T11:32:10.599Z,6.60
2022-08-02T11:34:42.393Z,5.30
2022-08-02T11:37:12.638Z,5.30
2022-08-02T11:39:41.991Z,7.20
2022-08-02T11:42:11.603Z,9.52
2022-08-02T11:44:44.941Z,5.22
2022-08-02T11:47:15.253Z,5.03
2022-08-02T11:49:45.872Z,5.55
2022-08-02T11:52:15.563Z,12.48
2022-08-02T11:54:45.813Z,7.20
2022-08-02T11:57:20.292Z,8.73
2022-08-02T11:59:52.913Z,6.00
2022-08-02T12:02:31.086Z,6.13
2022-08-02T12:05:09.012Z,4.53
2022-08-02T12:07:45.957Z,7.55
2022-08-02T12:10:24.531Z,4.75
2022-08-02T12:13:01.994Z,7.18
2022-08-02T12:15:38.439Z,4.30
2022-08-02T12:18:37.721Z,4.72
2022-08-02T12:21:26.725Z,9.35
2022-08-02T12:23:59.813Z,7.55
2022-08-02T12:26:32.076Z,4.72
2022-08-02T12:29:02.553Z,5.45
2022-08-02T12:31:56.304Z,6.70
2022-08-02T12:34:31.241Z,7.25
2022-08-02T12:37:06.919Z,5.70
2022-08-02T12:39:45.422Z,5.35
2022-08-02T12:42:16.704Z,5.53
2022-08-02T12:45:00.955Z,6.90
2022-08-02T12:47:35.548Z,7.88
2022-08-02T12:50:30.610Z,5.25
2022-08-02T12:53:13.677Z,5.20
2022-08-02T12:56:01.931Z,7.47
2022-08-02T12:58:47.863Z,8.77
2022-08-02T13:01:26.608Z,6.07
2022-08-02T13:04:12.016Z,6.63
2022-08-02T13:06:44.901Z,3.75
2022-08-02T13:09:18.929Z,5.55
2022-08-02T13:11:48.309Z,3.88
2022-08-02T13:14:17.848Z,4.53
2022-08-02T13:16:48.617Z,5.10
2022-08-02T13:19:18.098Z,7.00
2022-08-02T13:22:01.515Z,5.00
2022-08-02T13:24:40.250Z,4.13
2022-08-02T13:27:22.112Z,7.00
2022-08-02T13:29:52.450Z,9.15
2022-08-02T13:32:22.386Z,7.78
2022-08-02T13:34:51.688Z,5.68
2022-08-02T13:37:20.936Z,8.63
2022-08-02T13:40:18.820Z,5.10
2022-08-02T13:42:40.071Z,4.63
2022-08-02T13:45:12.545Z,7.22
2022-08-02T13:48:04.481Z,5.07
2022-08-02T13:50:35.152Z,5.55
2022-08-02T13:53:04.361Z,5.03
2022-08-02T13:55:33.668Z,8.00
2022-08-02T13:58:02.936Z,7.78
2022-08-02T14:00:34.682Z,8.93
2022-08-02T14:03:12.236Z,7.43
2022-08-02T14:05:47.363Z,5.57
2022-08-02T14:08:19.820Z,5.65
2022-08-02T14:10:50.816Z,6.55
2022-08-02T14:13:20.825Z,7.75
2022-08-02T14:15:49.956Z,5.80
2022-08-02T14:18:19.363Z,9.63
2022-08-02T14:20:48.499Z,6.10
2022-08-02T14:23:17.701Z,6.03
2022-08-02T14:25:46.863Z,7.55
2022-08-02T14:28:16.152Z,6.30
2022-08-02T14:30:45.621Z,6.88
2022-08-02T14:33:15.354Z,9.13
2022-08-02T14:35:44.540Z,5.10
2022-08-02T14:38:13.838Z,8.38
2022-08-02T14:40:42.927Z,4.90
2022-08-02T14:43:14.394Z,7.72
2022-08-02T14:45:47.103Z,11.02
2022-08-02T14:48:16.322Z,10.52
2022-08-02T14:50:45.436Z,12.63
2022-08-02T14:53:14.908Z,9.85
2022-08-02T14:55:44.993Z,11.38
2022-08-02T14:58:14.648Z,6.70
2022-08-02T15:00:44.046Z,6.38
2022-08-02T15:03:17.843Z,8.45
2022-08-02T15:05:47.059Z,7.18
2022-08-02T15:08:21.283Z,5.85
2022-08-02T15:10:50.937Z,7.18
2022-08-02T15:13:20.163Z,8.80
2022-08-02T15:15:50.345Z,6.00
2022-08-02T15:18:19.508Z,10.40
2022-08-02T15:20:57.242Z,8.80
2022-08-02T15:23:37.196Z,11.32
2022-08-02T15:26:08.723Z,6.85
2022-08-02T15:28:41.448Z,5.22
2022-08-02T15:31:11.042Z,6.88
2022-08-02T15:33:54.520Z,8.32
2022-08-02T15:36:24.199Z,9.32
2022-08-02T15:38:59.426Z,6.43
2022-08-02T15:41:31.268Z,6.50
2022-08-02T15:44:02.708Z,4.72
2022-08-02T15:46:37.573Z,6.20
2022-08-02T15:49:07.804Z,7.07
2022-08-02T15:51:37.370Z,11.65
2022-08-02T15:54:06.822Z,6.18
2022-08-02T15:56:36.243Z,5.65
2022-08-02T15:59:05.906Z,8.18
2022-08-02T16:01:39.007Z,12.50
2022-08-02T16:04:10.022Z,7.65
2022-08-02T16:06:39.412Z,11.43
2022-08-02T16:09:08.788Z,8.23
2022-08-02T16:11:41.241Z,5.22
2022-08-02T16:14:10.761Z,6.88
2022-08-02T16:16:41.394Z,6.30
2022-08-02T16:19:47.399Z,6.28
2022-08-02T16:22:00.175Z,4.28
2022-08-02T16:24:29.516Z,5.53
2022-08-02T16:26:58.826Z,6.38
2022-08-02T16:29:27.963Z,4.10
2022-08-02T16:32:05.550Z,6.60
2022-08-02T16:34:50.762Z,8.80
2022-08-02T16:37:23.923Z,6.93
2022-08-02T16:39:52.952Z,6.88
2022-08-02T16:42:25.233Z,7.20
2022-08-02T16:44:55.068Z,5.68
2022-08-02T16:47:42.742Z,4.78
2022-08-02T16:50:16.800Z,4.35
2022-08-02T16:52:58.014Z,5.47
2022-08-02T16:55:30.467Z,3.75
2022-08-02T16:58:01.743Z,5.70
2022-08-02T17:00:31.822Z,6.43
2022-08-02T17:03:13.521Z,4.90
2022-08-02T17:05:56.216Z,6.65
2022-08-02T17:08:31.787Z,11.00
2022-08-02T17:11:03.233Z,5.78
2022-08-02T17:13:34.410Z,7.97
2022-08-02T17:16:20.671Z,8.68
2022-08-02T17:18:58.970Z,7.43
2022-08-02T17:21:29.127Z,5.18
2022-08-02T17:24:05.486Z,9.32
2022-08-02T17:26:38.019Z,4.97
2022-08-02T17:29:16.282Z,8.23
2022-08-02T17:32:05.495Z,8.02
2022-08-02T17:34:38.864Z,8.75
2022-08-02T17:37:08.572Z,5.32
2022-08-02T17:39:44.066Z,6.10
2022-08-02T17:42:23.433Z,6.60
2022-08-02T17:44:55.137Z,9.95
2022-08-02T17:47:42.092Z,7.95
2022-08-02T17:50:12.771Z,7.68
2022-08-02T17:52:51.813Z,9.02
2022-08-02T17:55:22.670Z,8.88
2022-08-02T17:57:57.769Z,6.35
2022-08-02T18:00:34.636Z,6.35
2022-08-02T18:03:09.983Z,4.95
2022-08-02T18:05:53.001Z,10.95
2022-08-02T18:08:24.495Z,9.35
2022-08-02T18:10:55.377Z,17.30
2022-08-02T18:13:26.310Z,9.07
2022-08-02T18:16:02.324Z,9.75
2022-08-02T18:18:33.374Z,6.53
2022-08-02T18:21:15.469Z,11.10
2022-08-02T18:23:49.401Z,6.57
2022-08-02T18:26:20.866Z,8.30
2022-08-02T18:28:50.778Z,8.77
2022-08-02T18:31:23.001Z,6.32
2022-08-02T18:33:58.319Z,8.90
2022-08-02T18:36:32.916Z,5.55
2022-08-02T18:39:07.646Z,5.82
2022-08-02T18:41:38.261Z,5.10
2022-08-02T18:44:08.315Z,6.18
2022-08-02T18:46:40.953Z,8.70
2022-08-02T18:49:14.900Z,5.55
2022-08-02T18:51:47.770Z,4.68
2022-08-02T18:54:30.774Z,5.05
2022-08-02T18:57:04.286Z,5.93
2022-08-02T18:59:53.727Z,3.58
2022-08-02T19:02:24.955Z,7.57
2022-08-02T19:04:57.343Z,4.85
2022-08-02T19:07:50.802Z,7.30
2022-08-02T19:10:16.479Z,6.07
2022-08-02T19:12:46.148Z,4.30
2022-08-02T19:15:21.202Z,8.88
2022-08-02T19:17:55.665Z,5.72
2022-08-02T19:20:27.258Z,3.70
2022-08-02T19:22:58.356Z,5.82
2022-08-02T19:25:28.246Z,5.32
2022-08-02T19:28:08.255Z,4.72
2022-08-02T19:30:37.631Z,6.28
2022-08-02T19:33:11.239Z,5.78
2022-08-02T19:36:02.194Z,6.28
2022-08-02T19:38:32.943Z,4.10
2022-08-02T19:41:02.205Z,8.32
2022-08-02T19:44:25.926Z,6.50
2022-08-02T19:46:21.650Z,6.68
2022-08-02T19:48:51.322Z,4.13
2022-08-02T19:51:50.054Z,6.72
2022-08-02T19:54:10.533Z,4.75
2022-08-02T19:56:41.386Z,4.65
2022-08-02T19:59:13.391Z,4.00
2022-08-02T20:01:48.704Z,5.38
2022-08-02T20:04:22.953Z,4.78
2022-08-02T20:06:52.840Z,3.85
2022-08-02T20:09:33.240Z,7.05
2022-08-02T20:12:16.336Z,5.07
2022-08-02T20:14:51.025Z,5.00
2022-08-02T20:17:24.762Z,6.20
2022-08-02T20:19:57.110Z,5.13
2022-08-02T20:22:26.525Z,6.70
2022-08-02T20:24:56.153Z,3.80
2022-08-02T20:27:29.947Z,4.82
2022-08-02T20:29:59.544Z,4.90
2022-08-02T20:32:28.879Z,4.30
2022-08-02T20:34:58.664Z,3.83
2022-08-02T20:37:59.155Z,5.10
2022-08-02T20:40:17.818Z,7.30
2022-08-02T20:42:51.699Z,9.02
2022-08-02T20:45:24.117Z,5.25
2022-08-02T20:48:00.238Z,5.45
2022-08-02T20:50:51.341Z,6.63
2022-08-02T20:53:24.198Z,5.20
2022-08-02T20:55:57.165Z,4.80
2022-08-02T20:58:27.766Z,5.50
2022-08-02T21:01:00.463Z,4.45
2022-08-02T21:06:20.011Z,5.30
2022-08-02T21:08:50.737Z,5.55
2022-08-02T21:11:20.316Z,6.30
2022-08-02T21:14:07.701Z,3.47
2022-08-02T21:16:38.792Z,7.03
2022-08-02T21:19:09.827Z,4.35
2022-08-02T21:21:39.575Z,4.03
2022-08-02T21:24:12.411Z,3.90
2022-08-02T21:26:41.995Z,8.40
2022-08-02T21:29:13.733Z,5.50
2022-08-02T21:31:43.675Z,8.48
2022-08-02T21:34:26.901Z,6.32
2022-08-02T21:36:57.505Z,5.38
2022-08-02T21:39:26.848Z,5.13
2022-08-02T21:41:56.034Z,5.10
2022-08-02T21:44:25.415Z,11.23
2022-08-02T21:46:57.851Z,5.75
2022-08-02T21:50:09.593Z,6.18
2022-08-02T21:52:18.734Z,7.25
2022-08-02T21:54:48.296Z,7.95
2022-08-02T21:57:19.406Z,6.25
2022-08-02T21:59:52.702Z,5.22
2022-08-02T22:02:30.757Z,6.00
2022-08-02T22:05:02.638Z,4.90
2022-08-02T22:07:38.423Z,6.95
2022-08-02T22:10:10.225Z,7.65
2022-08-02T22:12:39.768Z,6.53
2022-08-02T22:15:13.555Z,7.15
2022-08-02T22:17:51.160Z,8.02
2022-08-02T22:20:22.799Z,5.93
2022-08-02T22:22:55.726Z,8.35
2022-08-02T22:25:35.986Z,10.35
2022-08-02T22:28:39.306Z,12.20
2022-08-02T22:31:05.566Z,9.43
2022-08-02T22:34:01.303Z,7.38
2022-08-02T22:36:32.702Z,6.13
2022-08-02T22:39:04.965Z,8.23
2022-08-02T22:42:06.592Z,12.77
2022-08-02T22:44:37.094Z,8.93
2022-08-02T22:47:14.638Z,8.55
2022-08-02T22:49:53.052Z,9.30
2022-08-02T22:52:24.081Z,8.55
2022-08-02T22:54:54.775Z,6.82
2022-08-02T22:57:30.346Z,6.93
2022-08-02T22:58:56.963Z,8.13
2022-08-02T23:00:01.436Z,8.23
2022-08-02T23:02:30.827Z,9.55
2022-08-02T23:05:02.590Z,6.45
2022-08-02T23:07:38.767Z,7.28
2022-08-02T23:10:11.068Z,13.35
2022-08-02T23:12:40.433Z,14.00
2022-08-02T23:15:10.447Z,9.00
2022-08-02T23:17:57.649Z,6.30
2022-08-02T23:20:27.285Z,11.00
2022-08-02T23:22:56.564Z,9.60
2022-08-02T23:25:25.712Z,9.25
2022-08-02T23:27:54.838Z,8.55
2022-08-02T23:30:24.148Z,6.13
2022-08-02T23:32:56.019Z,11.77
2022-08-02T23:35:25.225Z,6.57
2022-08-02T23:37:59.759Z,8.75
2022-08-02T23:40:40.170Z,7.43
2022-08-02T23:43:15.369Z,8.18
2022-08-02T23:45:47.550Z,16.25
2022-08-02T23:48:16.651Z,8.48
2022-08-02T23:50:45.854Z,13.88
2022-08-02T23:53:14.964Z,5.95
2022-08-02T23:55:44.040Z,8.85
2022-08-02T23:58:13.993Z,7.00
